Time;durP1;ratioP1;P1;durP2;ratioP2;P2;SDS_P1;SDS_P2;PMS_P1;PMS_P2;Temp;Humidity;BMP_temperature;BMP_pressure;BME280_temperature;BME280_humidity;BME280_pressure;Samples;Min_cycle;Max_cycle;Signal;HPM_P1;HPM_P2
2023/05/15 00:02:09;;;;;;;;;;;;;;;;;;4948802;28;89583;-65
2023/05/15 00:04:34;;;;;;;;;;;;;;;;;;4949715;28;89495;-68
2023/05/15 00:06:59;;;;;;;;;;;;;;;;;;4949617;28;89174;-68
2023/05/15 00:09:25;;;;;;;;;;;;;;;;;;4950105;28;89262;-69
2023/05/15 00:11:50;;;;;;;;;;;;;;;;;;4949167;28;90159;-69
2023/05/15 00:14:15;;;;;;;;;;;;;;;;;;4948551;28;89755;-71
2023/05/15 00:16:40;;;;;;;;;;;;;;;;;;4952214;28;89587;-73
2023/05/15 00:19:06;;;;;;;;;;;;;;;;;;4948769;28;89707;-66
2023/05/15 00:21:31;;;;;;;;;;;;;;;;;;4949269;28;90285;-66
2023/05/15 00:23:57;;;;;;;;;;;;;;;;;;4948362;28;90706;-67
2023/05/15 00:26:22;;;;;;;;;;;;;;;;;;4947299;28;90253;-71
2023/05/15 00:28:48;;;;;;;;;;;;;;;;;;4949667;28;89578;-67
2023/05/15 00:31:13;;;;;;;;;;;;;;;;;;4948942;28;90435;-64
2023/05/15 00:33:39;;;;;;;;;;;;;;;;;;4947994;28;89262;-65
2023/05/15 00:36:04;;;;;;;;;;;;;;;;;;4949617;28;89085;-66
2023/05/15 00:38:31;;;;;;;;;;;;;;;;;;4951825;28;89383;-68
2023/05/15 00:40:56;;;;;;;;;;;;;;;;;;4949370;28;89163;-71
2023/05/15 00:43:22;;;;;;;;;;;;;;;;;;4949500;28;89571;-68
2023/05/15 00:45:49;;;;;;;;;;;;;;;;;;4950063;28;89332;-66
2023/05/15 00:48:15;;;;;;;;;;;;;;;;;;4949563;28;90120;-69
2023/05/15 00:50:40;;;;;;;;;;;;;;;;;;4948754;28;91082;-67
2023/05/15 00:53:06;;;;;;;;;;;;;;;;;;4948934;28;90334;-69
2023/05/15 00:55:32;;;;;;;;;;;;;;;;;;4948943;28;90719;-69
2023/05/15 00:57:58;;;;;;;;;;;;;;;;;;4949659;28;89488;-65
2023/05/15 01:00:23;;;;;;;;;;;;;;;;;;4951709;28;89612;-66
2023/05/15 01:02:49;;;;;;;;;;;;;;;;;;4949221;28;89392;-67
2023/05/15 01:05:14;;;;;;;;;;;;;;;;;;4948479;28;90155;-66
2023/05/15 01:07:43;;;;;;;;;;;;;;;;;;4948579;28;89123;-67
2023/05/15 01:10:09;;;;;;;;;;;;;;;;;;4948770;28;90689;-69
2023/05/15 01:12:34;;;;;;;;;;;;;;;;;;4949155;28;90758;-67
2023/05/15 01:15:00;;;;;;;;;;;;;;;;;;4948925;28;89470;-67
2023/05/15 01:17:25;;;;;;;;;;;;;;;;;;4948680;28;89585;-68
2023/05/15 01:19:51;;;;;;;;;;;;;;;;;;4964355;28;89784;-67
2023/05/15 01:22:35;;;;;;;;;;;;;;;;;;4948375;28;89717;-67
2023/05/15 01:25:19;;;;;;;;;;;;;;;;;;4948692;28;89439;-64
2023/05/15 01:27:50;;;;;;;;;;;;;;;;;;4947743;28;89431;-69
2023/05/15 01:30:21;;;;;;;;;;;;;;;;;;4945517;28;89410;-69
2023/05/15 01:32:46;;;;;;;;;;;;;;;;;;4949558;28;90327;-66
2023/05/15 01:35:18;;;;;;;;;;;;;;;;;;4948116;28;89192;-65
2023/05/15 01:37:45;;;;;;;;;;;;;;;;;;4947641;28;91063;-65
2023/05/15 01:40:11;;;;;;;;;;;;;;;;;;4946827;28;89872;-66
2023/05/15 01:42:37;;;;;;;;;;;;;;;;;;4950561;28;89168;-68
2023/05/15 01:45:04;;;;;;;;;;;;;;;;;;4948188;28;89714;-68
2023/05/15 01:47:34;;;;;;;;;;;;;;;;;;4948008;28;90108;-69
2023/05/15 01:50:00;;;;;;;;;;;;;;;;;;4947610;28;90461;-68
2023/05/15 01:52:28;;;;;;;;;;;;;;;;;;4942501;28;89402;-69
2023/05/15 01:54:53;;;;;;;;;;;;;;;;;;4947084;28;89279;-65
2023/05/15 01:57:19;;;;;;;;;;;;;;;;;;4948440;28;89549;-66
2023/05/15 01:59:45;;;;;;;;;;;;;;;;;;4948143;28;90021;-67
2023/05/15 02:02:12;;;;;;;;;;;;;;;;;;4947947;28;89563;-66
2023/05/15 02:04:37;;;;;;;;;;;;;;;;;;4950236;28;89531;-66
2023/05/15 02:07:03;;;;;;;;;;;;;;;;;;4947993;28;89570;-69
2023/05/15 02:09:29;;;;;;;;;;;;;;;;;;4947157;28;89680;-67
2023/05/15 02:11:55;;;;;;;;;;;;;;;;;;4942483;28;89735;-65
2023/05/15 02:14:21;;;;;;;;;;;;;;;;;;4947673;28;90234;-67
2023/05/15 02:16:46;;;;;;;;;;;;;;;;;;4948235;28;89666;-71
2023/05/15 02:19:11;;;;;;;;;;;;;;;;;;4946428;28;89413;-66
2023/05/15 02:21:37;;;;;;;;;;;;;;;;;;4948203;28;89340;-68
2023/05/15 02:24:02;;;;;;;;;;;;;;;;;;4948325;28;89672;-70
2023/05/15 02:26:35;;;;;;;;;;;;;;;;;;4949735;28;89559;-67
2023/05/15 02:29:17;;;;;;;;;;;;;;;;;;4948439;28;89632;-69
2023/05/15 02:31:49;;;;;;;;;;;;;;;;;;4946135;28;90285;-68
2023/05/15 02:34:22;;;;;;;;;;;;;;;;;;4947595;28;89073;-66
2023/05/15 02:36:50;;;;;;;;;;;;;;;;;;4948650;28;90165;-69
2023/05/15 02:39:16;;;;;;;;;;;;;;;;;;4947175;28;89153;-65
2023/05/15 02:41:42;;;;;;;;;;;;;;;;;;4946485;28;89053;-65
2023/05/15 02:44:08;;;;;;;;;;;;;;;;;;4943887;28;90059;-65
2023/05/15 02:46:33;;;;;;;;;;;;;;;;;;4944923;28;89306;-65
2023/05/15 02:48:58;;;;;;;;;;;;;;;;;;4965040;28;90364;-68
2023/05/15 02:51:23;;;;;;;;;;;;;;;;;;4946822;28;90517;-69
2023/05/15 02:53:49;;;;;;;;;;;;;;;;;;4946718;28;89745;-68
2023/05/15 02:56:14;;;;;;;;;;;;;;;;;;4954524;28;93020;-71
2023/05/15 02:58:40;;;;;;;;;;;;;;;;;;4947582;28;89817;-68
2023/05/15 03:01:05;;;;;;;;;;;;;;;;;;4947135;28;89590;-71
2023/05/15 03:03:31;;;;;;;;;;;;;;;;;;4947071;28;89946;-69
2023/05/15 03:05:56;;;;;;;;;;;;;;;;;;4948115;28;89192;-68
2023/05/15 03:08:21;;;;;;;;;;;;;;;;;;4950783;28;89687;-66
2023/05/15 03:10:46;;;;;;;;;;;;;;;;;;4968461;28;89046;-65
2023/05/15 03:13:12;;;;;;;;;;;;;;;;;;4950947;28;89521;-64
2023/05/15 03:15:37;;;;;;;;;;;;;;;;;;4950237;28;90960;-66
2023/05/15 03:18:02;;;;;;;;;;;;;;;;;;4949828;28;89188;-67
2023/05/15 03:20:27;;;;;;;;;;;;;;;;;;4950341;28;89623;-65
2023/05/15 03:22:53;;;;;;;;;;;;;;;;;;4950803;28;89628;-67
2023/05/15 03:25:18;;;;;;;;;;;;;;;;;;4949357;28;90146;-68
2023/05/15 03:27:43;;;;;;;;;;;;;;;;;;4949891;28;89029;-68
2023/05/15 03:30:09;;;;;;;;;;;;;;;;;;4953945;28;89614;-68
2023/05/15 03:32:34;;;;;;;;;;;;;;;;;;4949933;28;89069;-68
2023/05/15 03:34:59;;;;;;;;;;;;;;;;;;4950333;28;89450;-66
2023/05/15 03:37:25;;;;;;;;;;;;;;;;;;4950981;28;90163;-70
2023/05/15 03:39:50;;;;;;;;;;;;;;;;;;4950117;28;89389;-66
2023/05/15 03:42:22;;;;;;;;;;;;;;;;;;4949441;28;90012;-69
2023/05/15 03:44:47;;;;;;;;;;;;;;;;;;4950158;28;89563;-68
2023/05/15 03:47:12;;;;;;;;;;;;;;;;;;4949123;28;89210;-68
2023/05/15 03:49:37;;;;;;;;;;;;;;;;;;4950568;28;89587;-65
2023/05/15 03:52:03;;;;;;;;;;;;;;;;;;4953184;28;89843;-70
2023/05/15 03:54:28;;;;;;;;;;;;;;;;;;4950210;28;89626;-68
2023/05/15 03:56:53;;;;;;;;;;;;;;;;;;4949997;28;89624;-68
2023/05/15 03:59:18;;;;;;;;;;;;;;;;;;4949293;28;89582;-68
2023/05/15 04:01:43;;;;;;;;;;;;;;;;;;4949428;28;89533;-69
2023/05/15 04:04:09;;;;;;;;;;;;;;;;;;4950112;28;89324;-66
2023/05/15 04:06:34;;;;;;;;;;;;;;;;;;4949151;28;89693;-65
2023/05/15 04:08:59;;;;;;;;;;;;;;;;;;4949980;28;90280;-65
2023/05/15 04:11:25;;;;;;;;;;;;;;;;;;4949385;28;89613;-68
2023/05/15 04:13:50;;;;;;;;;;;;;;;;;;4953183;28;89075;-68
2023/05/15 04:16:15;;;;;;;;;;;;;;;;;;4950047;28;91533;-70
2023/05/15 04:18:40;;;;;;;;;;;;;;;;;;4949046;28;89315;-66
2023/05/15 04:21:05;;;;;;;;;;;;;;;;;;4949903;28;89938;-67
2023/05/15 04:23:31;;;;;;;;;;;;;;;;;;4949678;28;89218;-65
2023/05/15 04:25:56;;;;;;;;;;;;;;;;;;4949105;28;89737;-69
2023/05/15 04:28:21;;;;;;;;;;;;;;;;;;4950017;28;89714;-70
2023/05/15 04:30:47;;;;;;;;;;;;;;;;;;4962374;28;90413;-65
2023/05/15 04:33:12;;;;;;;;;;;;;;;;;;4948302;28;89664;-68
2023/05/15 04:35:37;;;;;;;;;;;;;;;;;;4948849;28;90612;-73
2023/05/15 04:38:02;;;;;;;;;;;;;;;;;;4950036;28;90053;-68
2023/05/15 04:40:28;;;;;;;;;;;;;;;;;;4947595;28;90675;-70
2023/05/15 04:42:53;;;;;;;;;;;;;;;;;;4948001;28;90594;-69
2023/05/15 04:45:18;;;;;;;;;;;;;;;;;;4947334;28;90001;-72
2023/05/15 04:47:44;;;;;;;;;;;;;;;;;;4945435;28;90216;-70
2023/05/15 04:50:09;;;;;;;;;;;;;;;;;;4960015;28;91976;-69
2023/05/15 04:52:34;;;;;;;;;;;;;;;;;;4944640;28;90535;-72
2023/05/15 04:54:59;;;;;;;;;;;;;;;;;;4944738;28;91531;-68
2023/05/15 04:57:25;;;;;;;;;;;;;;;;;;4949732;28;90132;-72
2023/05/15 04:59:51;;;;;;;;;;;;;;;;;;4947833;28;90245;-70
2023/05/15 05:02:19;;;;;;;;;;;;;;;;;;4946725;28;90316;-73
2023/05/15 05:04:44;;;;;;;;;;;;;;;;;;4947258;28;89780;-71
2023/05/15 05:07:10;;;;;;;;;;;;;;;;;;4947851;28;90752;-69
2023/05/15 05:09:37;;;;;;;;;;;;;;;;;;4947894;28;89481;-72
2023/05/15 05:12:03;;;;;;;;;;;;;;;;;;4948546;28;89014;-72
2023/05/15 05:14:28;;;;;;;;;;;;;;;;;;4947729;28;90494;-72
2023/05/15 05:16:53;;;;;;;;;;;;;;;;;;4949690;28;90505;-67
2023/05/15 05:19:18;;;;;;;;;;;;;;;;;;4944009;28;90124;-68
2023/05/15 05:21:43;;;;;;;;;;;;;;;;;;4946339;28;89237;-70
2023/05/15 05:24:09;;;;;;;;;;;;;;;;;;4945115;28;89714;-69
2023/05/15 05:26:34;;;;;;;;;;;;;;;;;;4944579;28;89816;-68
2023/05/15 05:28:59;;;;;;;;;;;;;;;;;;4943792;28;89872;-70
2023/05/15 05:31:24;;;;;;;;;;;;;;;;;;4947836;28;89643;-68
2023/05/15 05:33:51;;;;;;;;;;;;;;;;;;4946668;28;89738;-68
2023/05/15 05:36:16;;;;;;;;;;;;;;;;;;4945992;28;89209;-69
2023/05/15 05:38:42;;;;;;;;;;;;;;;;;;4949460;28;89637;-67
2023/05/15 05:41:07;;;;;;;;;;;;;;;;;;4947404;28;90520;-70
2023/05/15 05:43:32;;;;;;;;;;;;;;;;;;4947229;28;89717;-72
2023/05/15 05:45:57;;;;;;;;;;;;;;;;;;4944992;28;90797;-66
2023/05/15 05:48:22;;;;;;;;;;;;;;;;;;4947377;28;89928;-72
2023/05/15 05:50:48;;;;;;;;;;;;;;;;;;4947750;28;90100;-66
2023/05/15 05:53:13;;;;;;;;;;;;;;;;;;4946975;28;90818;-70
2023/05/15 05:55:38;;;;;;;;;;;;;;;;;;4945826;28;89078;-72
2023/05/15 05:58:04;;;;;;;;;;;;;;;;;;4945486;28;89699;-63
2023/05/15 06:00:29;;;;;;;;;;;;;;;;;;4949387;28;90618;-66
2023/05/15 06:02:55;;;;;;;;;;;;;;;;;;4947044;28;89073;-76
2023/05/15 06:05:22;;;;;;;;;;;;;;;;;;4945832;28;89637;-70
2023/05/15 06:07:47;;;;;;;;;;;;;;;;;;4960678;28;90405;-67
2023/05/15 06:10:12;;;;;;;;;;;;;;;;;;4946973;28;89604;-65
2023/05/15 06:12:38;;;;;;;;;;;;;;;;;;4946879;28;90626;-71
2023/05/15 06:15:03;;;;;;;;;;;;;;;;;;4946968;28;90411;-68
2023/05/15 06:17:28;;;;;;;;;;;;;;;;;;4945825;28;90479;-76
2023/05/15 06:19:54;;;;;;;;;;;;;;;;;;4945649;28;90144;-74
2023/05/15 06:22:19;;;;;;;;;;;;;;;;;;4948560;28;90389;-66
2023/05/15 06:24:44;;;;;;;;;;;;;;;;;;4945980;28;90073;-70
2023/05/15 06:27:10;;;;;;;;;;;;;;;;;;4946595;28;89222;-68
2023/05/15 06:29:35;;;;;;;;;;;;;;;;;;4946037;28;90147;-65
2023/05/15 06:32:00;;;;;;;;;;;;;;;;;;4945217;28;90024;-67
2023/05/15 06:34:25;;;;;;;;;;;;;;;;;;4946588;28;89177;-67
2023/05/15 06:36:51;;;;;;;;;;;;;;;;;;4961065;28;89142;-74
2023/05/15 06:39:16;;;;;;;;;;;;;;;;;;4946564;28;90504;-71
2023/05/15 06:41:42;;;;;;;;;;;;;;;;;;4945942;28;89504;-69
2023/05/15 06:44:07;;;;;;;;;;;;;;;;;;4949549;28;89118;-74
2023/05/15 06:46:32;;;;;;;;;;;;;;;;;;4945568;28;89483;-68
2023/05/15 06:48:57;;;;;;;;;;;;;;;;;;4947058;28;90544;-64
2023/05/15 06:51:23;;;;;;;;;;;;;;;;;;4945780;28;89747;-66
2023/05/15 06:53:48;;;;;;;;;;;;;;;;;;4947217;28;90166;-71
2023/05/15 06:56:13;;;;;;;;;;;;;;;;;;4945481;28;90156;-71
2023/05/15 06:58:38;;;;;;;;;;;;;;;;;;4946228;28;90685;-72
2023/05/15 07:01:05;;;;;;;;;;;;;;;;;;4945555;28;89575;-70
2023/05/15 07:03:30;;;;;;;;;;;;;;;;;;4945566;28;90387;-74
2023/05/15 07:05:56;;;;;;;;;;;;;;;;;;4949776;28;89915;-67
2023/05/15 07:08:21;;;;;;;;;;;;;;;;;;4945948;28;91334;-70
2023/05/15 07:10:47;;;;;;;;;;;;;;;;;;4945746;28;90038;-75
2023/05/15 07:13:12;;;;;;;;;;;;;;;;;;4945419;28;90603;-68
2023/05/15 07:15:38;;;;;;;;;;;;;;;;;;4945917;28;89112;-67
2023/05/15 07:18:03;;;;;;;;;;;;;;;;;;4946304;28;90034;-67
2023/05/15 07:20:28;;;;;;;;;;;;;;;;;;4946422;28;89938;-74
2023/05/15 07:22:53;;;;;;;;;;;;;;;;;;4945827;28;89228;-79
2023/05/15 07:25:19;;;;;;;;;;;;;;;;;;4948408;28;89589;-72
2023/05/15 07:27:44;;;;;;;;;;;;;;;;;;4945783;28;89052;-68
2023/05/15 07:30:09;;;;;;;;;;;;;;;;;;4945976;28;90951;-67
2023/05/15 07:32:35;;;;;;;;;;;;;;;;;;4945599;28;90226;-68
2023/05/15 07:35:00;;;;;;;;;;;;;;;;;;4946506;28;89147;-73
2023/05/15 07:37:25;;;;;;;;;;;;;;;;;;4946768;28;89703;-73
2023/05/15 07:39:50;;;;;;;;;;;;;;;;;;4943677;28;89839;-84
2023/05/15 07:42:16;;;;;;;;;;;;;;;;;;4945939;28;90576;-76
2023/05/15 07:44:41;;;;;;;;;;;;;;;;;;4945950;28;90688;-77
2023/05/15 07:47:06;;;;;;;;;;;;;;;;;;4949201;28;90084;-75
2023/05/15 07:49:31;;;;;;;;;;;;;;;;;;4945461;28;90676;-71
2023/05/15 07:51:56;;;;;;;;;;;;;;;;;;4946728;28;90489;-75
2023/05/15 07:54:22;;;;;;;;;;;;;;;;;;4949130;28;89084;-73
2023/05/15 07:56:47;;;;;;;;;;;;;;;;;;4949056;28;90112;-73
2023/05/15 07:59:13;;;;;;;;;;;;;;;;;;4949157;28;89426;-68
2023/05/15 08:01:38;;;;;;;;;;;;;;;;;;4950316;28;89770;-73
2023/05/15 08:04:06;;;;;;;;;;;;;;;;;;4943031;28;92238;-76
2023/05/15 08:06:31;;;;;;;;;;;;;;;;;;4949450;28;89539;-67
2023/05/15 08:08:57;;;;;;;;;;;;;;;;;;4952829;28;90317;-73
2023/05/15 08:11:22;;;;;;;;;;;;;;;;;;4948903;28;90514;-71
2023/05/15 08:13:47;;;;;;;;;;;;;;;;;;4949573;28;89486;-66
2023/05/15 08:16:12;;;;;;;;;;;;;;;;;;4949501;28;89593;-69
2023/05/15 08:18:38;;;;;;;;;;;;;;;;;;4947593;28;90119;-68
2023/05/15 08:21:03;;;;;;;;;;;;;;;;;;4946542;28;89102;-70
2023/05/15 08:23:28;;;;;;;;;;;;;;;;;;4947462;28;89931;-69
2023/05/15 08:25:53;;;;;;;;;;;;;;;;;;4948684;28;90053;-69
2023/05/15 08:28:18;;;;;;;;;;;;;;;;;;4945714;28;89820;-74
2023/05/15 08:30:44;;;;;;;;;;;;;;;;;;4951720;28;89657;-73
2023/05/15 08:33:09;;;;;;;;;;;;;;;;;;4945547;28;90056;-67
2023/05/15 08:35:34;;;;;;;;;;;;;;;;;;4946985;28;89968;-69
2023/05/15 08:37:59;;;;;;;;;;;;;;;;;;4947324;28;89927;-72
2023/05/15 08:40:25;;;;;;;;;;;;;;;;;;4961241;28;92116;-75
2023/05/15 08:42:54;;;;;;;;;;;;;;;;;;4948512;28;90653;-72
2023/05/15 08:45:19;;;;;;;;;;;;;;;;;;4944239;28;89579;-77
2023/05/15 08:47:45;;;;;;;;;;;;;;;;;;4945616;28;89748;-76
2023/05/15 08:50:14;;;;;;;;;;;;;;;;;;4947542;28;90756;-71
2023/05/15 08:52:40;;;;;;;;;;;;;;;;;;4949036;28;90338;-75
2023/05/15 08:55:06;;;;;;;;;;;;;;;;;;4948141;28;90697;-70
2023/05/15 08:57:32;;;;;;;;;;;;;;;;;;4948091;28;90425;-74
2023/05/15 08:59:57;;;;;;;;;;;;;;;;;;4963502;28;91907;-71
2023/05/15 09:02:24;;;;;;;;;;;;;;;;;;4947204;28;90051;-70
2023/05/15 09:04:49;;;;;;;;;;;;;;;;;;4948129;28;89772;-69
2023/05/15 09:07:15;;;;;;;;;;;;;;;;;;4947503;28;89415;-69
2023/05/15 09:09:41;;;;;;;;;;;;;;;;;;4946729;28;90635;-66
2023/05/15 09:12:10;;;;;;;;;;;;;;;;;;4948031;28;89800;-66
2023/05/15 09:14:35;;;;;;;;;;;;;;;;;;4951130;28;88981;-69
2023/05/15 09:17:00;;;;;;;;;;;;;;;;;;4947613;28;89388;-66
2023/05/15 09:19:26;;;;;;;;;;;;;;;;;;4960475;28;90806;-67
2023/05/15 09:21:51;;;;;;;;;;;;;;;;;;4945445;28;90069;-70
2023/05/15 09:24:24;;;;;;;;;;;;;;;;;;4947660;28;89790;-68
2023/05/15 09:27:08;;;;;;;;;;;;;;;;;;4945956;28;90474;-71
2023/05/15 09:29:34;;;;;;;;;;;;;;;;;;4947616;28;89553;-68
2023/05/15 09:32:06;;;;;;;;;;;;;;;;;;4949229;28;90838;-69
2023/05/15 09:34:32;;;;;;;;;;;;;;;;;;4949154;28;89093;-72
2023/05/15 09:36:59;;;;;;;;;;;;;;;;;;4946611;28;90323;-69
2023/05/15 09:39:25;;;;;;;;;;;;;;;;;;4946123;28;89212;-71
2023/05/15 09:41:51;;;;;;;;;;;;;;;;;;4947723;28;89455;-71
2023/05/15 09:44:17;;;;;;;;;;;;;;;;;;4947356;28;91552;-71
2023/05/15 09:46:42;;;;;;;;;;;;;;;;;;4947238;28;89733;-75
2023/05/15 09:49:08;;;;;;;;;;;;;;;;;;4944436;28;89806;-73
2023/05/15 09:51:33;;;;;;;;;;;;;;;;;;4943592;28;90490;-72
2023/05/15 09:53:58;;;;;;;;;;;;;;;;;;4946194;28;89100;-73
2023/05/15 09:56:23;;;;;;;;;;;;;;;;;;4951448;28;89020;-71
2023/05/15 09:58:55;;;;;;;;;;;;;;;;;;4946659;28;91023;-68
2023/05/15 10:01:21;;;;;;;;;;;;;;;;;;4946235;28;89101;-72
2023/05/15 10:04:01;;;;;;;;;;;;;;;;;;4945642;28;91226;-72
2023/05/15 10:06:26;;;;;;;;;;;;;;;;;;4946470;28;89647;-70
2023/05/15 10:08:54;;;;;;;;;;;;;;;;;;4946568;28;89537;-71
2023/05/15 10:11:22;;;;;;;;;;;;;;;;;;4946453;28;90237;-72
2023/05/15 10:13:48;;;;;;;;;;;;;;;;;;4946829;28;89105;-71
2023/05/15 10:16:13;;;;;;;;;;;;;;;;;;4945893;28;89966;-72
2023/05/15 10:18:43;;;;;;;;;;;;;;;;;;4950010;28;89809;-72
2023/05/15 10:26:10;;;;;;;;;;;;;;;;;;5042306;27;82138;-75
2023/05/15 10:28:36;;;;;;;;;;;;;;;;;;5021938;27;89644;-79
2023/05/15 10:31:02;;;;;;;;;;;;;;;;;;5026154;27;90187;-68
2023/05/15 10:33:28;;;;;;;;;;;;;;;;;;5024517;27;91419;-70
2023/05/15 10:35:55;;;;;;;;;;;;;;;;;;5021474;27;89605;-68
2023/05/15 10:38:20;;;;;;;;;;;;;;;;;;5024572;27;90586;-73
2023/05/15 10:40:46;;;;;;;;;;;;;;;;;;5023308;27;89723;-76
2023/05/15 10:43:12;;;;;;;;;;;;;;;;;;5021356;27;89436;-71
2023/05/15 10:45:38;;;;;;;;;;;;;;;;;;5022363;27;90580;-74
2023/05/15 10:48:04;;;;;;;;;;;;;;;;;;5025211;27;91407;-74
2023/05/15 10:50:30;;;;;;;;;;;;;;;;;;5020228;27;90880;-74
2023/05/15 10:52:55;;;;;;;;;;;;;;;;;;5028414;27;89999;-71
2023/05/15 10:55:21;;;;;;;;;;;;;;;;;;5021697;27;91454;-70
2023/05/15 10:57:46;;;;;;;;;;;;;;;;;;5027869;27;90183;-73
2023/05/15 11:00:21;;;;;;;;;;;;;;;;;;5035137;27;89530;-71
2023/05/15 11:02:46;;;;;;;;;;;;;;;;;;5053682;27;91587;-69
2023/05/15 11:05:13;;;;;;;;;;;;;;;;;;5026616;27;89575;-73
2023/05/15 11:07:38;;;;;;;;;;;;;;;;;;5030133;27;89117;-72
2023/05/15 11:10:23;;;;;;;;;;;;;;;;;;5024365;27;89786;-74
2023/05/15 11:12:58;;;;;;;;;;;;;;;;;;5027688;27;90985;-73
2023/05/15 11:15:23;;;;;;;;;;;;;;;;;;5026144;27;89679;-72
2023/05/15 11:18:00;;;;;;;;;;;;;;;;;;5025113;27;90185;-71
2023/05/15 11:20:32;;;;;;;;;;;;;;;;;;5027026;27;89470;-70
2023/05/15 11:22:58;;;;;;;;;;;;;;;;;;5025445;27;89867;-71
2023/05/15 11:25:28;;;;;;;;;;;;;;;;;;5024001;27;90242;-72
2023/05/15 11:27:54;;;;;;;;;;;;;;;;;;5030016;27;89439;-72
2023/05/15 11:30:21;;;;;;;;;;;;;;;;;;5027530;27;89507;-71
2023/05/15 11:32:46;;;;;;;;;;;;;;;;;;5027618;27;89357;-71
2023/05/15 11:35:20;;;;;;;;;;;;;;;;;;5029928;27;89592;-73
2023/05/15 11:37:46;;;;;;;;;;;;;;;;;;5008375;28;90299;-72
2023/05/15 11:40:13;;;;;;;;;;;;;;;;;;5009404;28;89216;-73
2023/05/15 11:42:38;;;;;;;;;;;;;;;;;;5012797;28;89649;-71
2023/05/15 11:45:05;;;;;;;;;;;;;;;;;;5040637;27;91953;-74
2023/05/15 11:47:31;;;;;;;;;;;;;;;;;;5014809;28;89016;-71
2023/05/15 11:49:56;;;;;;;;;;;;;;;;;;5010350;28;91157;-73
2023/05/15 11:52:23;;;;;;;;;;;;;;;;;;5008812;28;89590;-73
2023/05/15 11:54:48;;;;;;;;;;;;;;;;;;5013126;28;90251;-71
2023/05/15 11:57:14;;;;;;;;;;;;;;;;;;5009275;28;89797;-74
2023/05/15 11:59:39;;;;;;;;;;;;;;;;;;5007768;28;89762;-73
2023/05/15 12:02:04;;;;;;;;;;;;;;;;;;5014412;28;89376;-72
2023/05/15 12:04:32;;;;;;;;;;;;;;;;;;5007503;28;89237;-69
2023/05/15 12:07:00;;;;;;;;;;;;;;;;;;5011931;28;89022;-73
2023/05/15 12:09:27;;;;;;;;;;;;;;;;;;5018048;28;89996;-74
2023/05/15 12:11:55;;;;;;;;;;;;;;;;;;5014428;28;89425;-69
2023/05/15 12:14:27;;;;;;;;;;;;;;;;;;5017670;28;89321;-73
2023/05/15 12:16:52;;;;;;;;;;;;;;;;;;5004661;28;90322;-72
2023/05/15 12:19:17;;;;;;;;;;;;;;;;;;5011675;28;89079;-73
2023/05/15 12:21:46;;;;;;;;;;;;;;;;;;5016011;28;90058;-69
2023/05/15 12:24:12;;;;;;;;;;;;;;;;;;5005527;28;90179;-68
2023/05/15 12:26:38;;;;;;;;;;;;;;;;;;5009218;28;89554;-73
2023/05/15 12:29:04;;;;;;;;;;;;;;;;;;5013444;28;90872;-71
2023/05/15 12:31:29;;;;;;;;;;;;;;;;;;5008655;28;90078;-69
2023/05/15 12:33:55;;;;;;;;;;;;;;;;;;5007462;28;89086;-71
2023/05/15 12:36:20;;;;;;;;;;;;;;;;;;5012812;28;89276;-75
2023/05/15 12:38:46;;;;;;;;;;;;;;;;;;5008640;28;89902;-74
2023/05/15 12:41:11;;;;;;;;;;;;;;;;;;5004861;28;90544;-77
2023/05/15 12:43:36;;;;;;;;;;;;;;;;;;5007391;28;90116;-73
2023/05/15 12:46:01;;;;;;;;;;;;;;;;;;5007856;28;89289;-74
2023/05/15 12:48:32;;;;;;;;;;;;;;;;;;5009594;28;90676;-70
2023/05/15 12:51:05;;;;;;;;;;;;;;;;;;5010500;28;89803;-73
2023/05/15 12:53:33;;;;;;;;;;;;;;;;;;5009002;28;89028;-71
2023/05/15 12:55:58;;;;;;;;;;;;;;;;;;5014227;28;90708;-73
2023/05/15 12:58:23;;;;;;;;;;;;;;;;;;5010957;28;89284;-74
2023/05/15 13:00:50;;;;;;;;;;;;;;;;;;5012443;28;90704;-70
2023/05/15 13:03:18;;;;;;;;;;;;;;;;;;5009014;28;90045;-71
2023/05/15 13:05:44;;;;;;;;;;;;;;;;;;5008227;28;89039;-74
2023/05/15 13:08:13;;;;;;;;;;;;;;;;;;5010326;28;89639;-72
2023/05/15 13:10:39;;;;;;;;;;;;;;;;;;5010662;28;89515;-73
2023/05/15 13:13:04;;;;;;;;;;;;;;;;;;5011837;28;89011;-72
2023/05/15 13:15:35;;;;;;;;;;;;;;;;;;5012439;28;89496;-73
2023/05/15 13:18:01;;;;;;;;;;;;;;;;;;5013798;28;92059;-72
2023/05/15 13:20:27;;;;;;;;;;;;;;;;;;5005628;28;93348;-68
2023/05/15 13:22:52;;;;;;;;;;;;;;;;;;5005200;28;93651;-73
2023/05/15 13:25:18;;;;;;;;;;;;;;;;;;5004992;28;89525;-71
2023/05/15 13:27:44;;;;;;;;;;;;;;;;;;5001895;28;90479;-73
2023/05/15 13:30:10;;;;;;;;;;;;;;;;;;5006639;28;89668;-74
2023/05/15 13:32:35;;;;;;;;;;;;;;;;;;5036869;27;89574;-73
2023/05/15 13:35:00;;;;;;;;;;;;;;;;;;5007746;28;89928;-70
2023/05/15 13:37:26;;;;;;;;;;;;;;;;;;5006006;28;90165;-76
2023/05/15 13:39:51;;;;;;;;;;;;;;;;;;5011125;28;89232;-70
2023/05/15 13:42:16;;;;;;;;;;;;;;;;;;5005849;28;89364;-70
2023/05/15 13:44:41;;;;;;;;;;;;;;;;;;5003435;28;89401;-73
2023/05/15 13:47:07;;;;;;;;;;;;;;;;;;5038672;27;92750;-74
2023/05/15 13:49:32;;;;;;;;;;;;;;;;;;5008835;28;89176;-73
2023/05/15 13:51:57;;;;;;;;;;;;;;;;;;5003733;28;89727;-73
2023/05/15 13:54:22;;;;;;;;;;;;;;;;;;5006930;28;90672;-70
2023/05/15 13:56:48;;;;;;;;;;;;;;;;;;5008989;28;89785;-71
2023/05/15 13:59:13;;;;;;;;;;;;;;;;;;5009202;28;90327;-71
2023/05/15 14:01:38;;;;;;;;;;;;;;;;;;5006877;28;89263;-72
2023/05/15 14:04:03;;;;;;;;;;;;;;;;;;5002422;28;89604;-71
2023/05/15 14:06:29;;;;;;;;;;;;;;;;;;5011268;28;89520;-69
2023/05/15 14:08:55;;;;;;;;;;;;;;;;;;5012455;28;89748;-72
2023/05/15 14:11:21;;;;;;;;;;;;;;;;;;5005820;28;89480;-68
2023/05/15 14:13:47;;;;;;;;;;;;;;;;;;5008547;28;91625;-70
2023/05/15 14:16:15;;;;;;;;;;;;;;;;;;5009188;28;90069;-70
2023/05/15 14:18:40;;;;;;;;;;;;;;;;;;5008461;28;89691;-74
2023/05/15 14:21:05;;;;;;;;;;;;;;;;;;5007114;28;89916;-74
2023/05/15 14:23:31;;;;;;;;;;;;;;;;;;5013665;28;89485;-73
2023/05/15 14:25:56;;;;;;;;;;;;;;;;;;5007067;28;89385;-71
2023/05/15 14:28:21;;;;;;;;;;;;;;;;;;5004561;28;89120;-71
2023/05/15 14:30:47;;;;;;;;;;;;;;;;;;5003288;28;89346;-72
2023/05/15 14:33:12;;;;;;;;;;;;;;;;;;5006156;28;89609;-72
2023/05/15 14:35:37;;;;;;;;;;;;;;;;;;5007317;28;89987;-72
2023/05/15 14:38:03;;;;;;;;;;;;;;;;;;5008085;28;89548;-67
2023/05/15 14:40:28;;;;;;;;;;;;;;;;;;5009537;28;90141;-74
2023/05/15 14:42:53;;;;;;;;;;;;;;;;;;5008952;28;89792;-73
2023/05/15 14:45:18;;;;;;;;;;;;;;;;;;5007055;28;89592;-72
2023/05/15 14:47:44;;;;;;;;;;;;;;;;;;5005058;28;89529;-72
2023/05/15 14:50:09;;;;;;;;;;;;;;;;;;5006451;28;89431;-67
2023/05/15 14:52:34;;;;;;;;;;;;;;;;;;5006147;28;89620;-72
2023/05/15 14:55:00;;;;;;;;;;;;;;;;;;5004748;28;89507;-74
2023/05/15 14:57:25;;;;;;;;;;;;;;;;;;5001353;28;89536;-70
2023/05/15 14:59:50;;;;;;;;;;;;;;;;;;5007814;28;92756;-67
2023/05/15 15:02:16;;;;;;;;;;;;;;;;;;5012213;28;90125;-73
2023/05/15 15:04:41;;;;;;;;;;;;;;;;;;5008511;28;89621;-73
2023/05/15 15:07:09;;;;;;;;;;;;;;;;;;5006323;28;89808;-69
2023/05/15 15:09:34;;;;;;;;;;;;;;;;;;5009409;28;89081;-72
2023/05/15 15:11:59;;;;;;;;;;;;;;;;;;5007780;28;90084;-68
2023/05/15 15:14:25;;;;;;;;;;;;;;;;;;5013061;28;90387;-69
2023/05/15 15:16:50;;;;;;;;;;;;;;;;;;5011084;28;89229;-72
2023/05/15 15:19:15;;;;;;;;;;;;;;;;;;5009338;28;89356;-67
2023/05/15 15:21:40;;;;;;;;;;;;;;;;;;5020461;28;89363;-71
2023/05/15 15:24:06;;;;;;;;;;;;;;;;;;5012719;28;89579;-71
2023/05/15 15:26:31;;;;;;;;;;;;;;;;;;5011449;28;90549;-70
2023/05/15 15:28:59;;;;;;;;;;;;;;;;;;5011176;28;89948;-68
2023/05/15 15:31:25;;;;;;;;;;;;;;;;;;5011144;28;89594;-73
2023/05/15 15:33:50;;;;;;;;;;;;;;;;;;5015866;28;90593;-69
2023/05/15 15:36:15;;;;;;;;;;;;;;;;;;5012872;28;89206;-69
2023/05/15 15:38:42;;;;;;;;;;;;;;;;;;5011326;28;89566;-68
2023/05/15 15:41:07;;;;;;;;;;;;;;;;;;5012281;28;89615;-70
2023/05/15 15:43:33;;;;;;;;;;;;;;;;;;5006901;28;89462;-70
2023/05/15 15:45:58;;;;;;;;;;;;;;;;;;5011611;28;89569;-73
2023/05/15 15:48:23;;;;;;;;;;;;;;;;;;5014599;28;89233;-69
2023/05/15 15:50:50;;;;;;;;;;;;;;;;;;5009630;28;90448;-73
2023/05/15 15:53:15;;;;;;;;;;;;;;;;;;5004689;28;90111;-70
2023/05/15 15:55:40;;;;;;;;;;;;;;;;;;5003836;28;89084;-70
2023/05/15 15:58:06;;;;;;;;;;;;;;;;;;4947954;27;93880;-73
2023/05/15 16:00:31;;;;;;;;;;;;;;;;;;4985765;27;90997;-74
2023/05/15 16:02:56;;;;;;;;;;;;;;;;;;5003731;28;89676;-72
2023/05/15 16:05:21;;;;;;;;;;;;;;;;;;5008194;28;89590;-69
2023/05/15 16:07:47;;;;;;;;;;;;;;;;;;5010522;28;89724;-73
2023/05/15 16:10:12;;;;;;;;;;;;;;;;;;5011371;28;89545;-73
2023/05/15 16:12:39;;;;;;;;;;;;;;;;;;5007716;28;90252;-72
2023/05/15 16:15:05;;;;;;;;;;;;;;;;;;5009873;28;90006;-71
2023/05/15 16:17:30;;;;;;;;;;;;;;;;;;5013404;28;89608;-73
2023/05/15 16:19:55;;;;;;;;;;;;;;;;;;5005427;28;89688;-71
2023/05/15 16:22:20;;;;;;;;;;;;;;;;;;5009338;28;89008;-70
2023/05/15 16:24:46;;;;;;;;;;;;;;;;;;5007719;28;89535;-69
2023/05/15 16:27:12;;;;;;;;;;;;;;;;;;5009218;28;89702;-67
2023/05/15 16:29:37;;;;;;;;;;;;;;;;;;5008504;28;90226;-66
2023/05/15 16:32:02;;;;;;;;;;;;;;;;;;5010998;28;89739;-70
2023/05/15 16:34:27;;;;;;;;;;;;;;;;;;5015040;28;89701;-69
2023/05/15 16:36:53;;;;;;;;;;;;;;;;;;5011791;28;90686;-69
2023/05/15 16:39:18;;;;;;;;;;;;;;;;;;5011706;28;89745;-68
2023/05/15 16:41:43;;;;;;;;;;;;;;;;;;5011438;28;89061;-70
2023/05/15 16:44:10;;;;;;;;;;;;;;;;;;5013676;28;89498;-70